Airfield :
LOGIN :

Register | Disclaimer

   EN    FR    IT 

 










Legend :    VFR   Marginal VFR   IFR   Intensive IFR   Very Intensive IFR
Visi :
Ceiling :
>= 8 km
>= 3000ft
5 to 8 km
1000 to 3000 ft
1500m to 5 km
500 to 1000 ft
800 to 1500m
200 to 500 ft
< 800m
< 200 ft
Symbols :   Thunderstorms  Fog  Heavy snow  Heavy precipitations  Wind > 20 kt
SIGMETs :     Misc.  Thunderstorms  Icing  Turbulence  Mountain Waves  Volcanic Ashes







- Airport Elevation : 117 ft
- IATA code : NWI
- Download approach charts


EGSH - Norwich

CURRENT METAR :
  • 191220Z 13011KT 100V160 8000 SCT048 17/15 Q1004

EXPIRED METARs :
  • 191150Z 12009KT 8000 SCT048 18/15 Q1005
  • 191120Z 13007KT 100V160 7000 NSC 18/15 Q1005
  • 191050Z 12008KT 090V160 5000 HZ NSC 17/15 Q1006 NOSIG
  • 191020Z 11005KT 5000 BR FEW004 SCT020 17/16 Q1006 NOSIG
  • 190950Z 13005KT 100V170 4500 BR BKN020 16/15 Q1007 BECMG 9999 NSW FEW020

TAF AMD TAF EGSH
Valid from the 19 at 12:00 until the 19 at 21:00 UTC


191158Z 1912/1921 10005KT 9999 SCT020
BECMG 1912/1915 16010KT
TEMPO 1912/1919 6000 -RADZ BKN014
ATIS : +44 1603 420 640
No reported NOTAMs for that airfield.



MET'MAP, your aeronautical weather chart ! - Copyright ORBIFLY December 2007 - Disclaimer

ORBIFLY MET'MAP TEAM :

Programming & Development : Alexandra Zaïnal
Concept & Development : Baudouin d'Aumeries
Co-Development & Prog : Marc-Olivier Méhu
Technical & hardware support : Manuel Goepfert

Contact : metmap@orbifly.com




SOURCES & CREDITS :

   NOAA